sensor_id;sensor_type;location;lat;lon;timestamp;temperature;humidity
17236;DHT22;8734;59.272;17.780;2023-07-13T00:01:09;15.30;99.90
17236;DHT22;8734;59.272;17.780;2023-07-13T00:03:37;15.20;99.90
17236;DHT22;8734;59.272;17.780;2023-07-13T00:06:10;15.30;99.90
17236;DHT22;8734;59.272;17.780;2023-07-13T00:08:38;15.30;99.90
17236;DHT22;8734;59.272;17.780;2023-07-13T00:11:06;15.30;99.90
17236;DHT22;8734;59.272;17.780;2023-07-13T00:13:37;15.20;99.90
17236;DHT22;8734;59.272;17.780;2023-07-13T00:16:07;15.20;99.90
17236;DHT22;8734;59.272;17.780;2023-07-13T00:18:36;15.20;99.90
17236;DHT22;8734;59.272;17.780;2023-07-13T00:21:04;15.10;99.90
17236;DHT22;8734;59.272;17.780;2023-07-13T00:23:34;15.20;99.90
17236;DHT22;8734;59.272;17.780;2023-07-13T00:26:05;15.20;99.90
17236;DHT22;8734;59.272;17.780;2023-07-13T00:28:34;15.20;99.90
17236;DHT22;8734;59.272;17.780;2023-07-13T00:31:02;15.20;99.90
17236;DHT22;8734;59.272;17.780;2023-07-13T00:33:34;15.10;99.90
17236;DHT22;8734;59.272;17.780;2023-07-13T00:36:03;15.10;99.90
17236;DHT22;8734;59.272;17.780;2023-07-13T00:38:33;15.10;99.90
17236;DHT22;8734;59.272;17.780;2023-07-13T00:41:01;15.10;99.90
17236;DHT22;8734;59.272;17.780;2023-07-13T00:43:31;15.10;99.90
17236;DHT22;8734;59.272;17.780;2023-07-13T00:46:21;15.10;99.90
17236;DHT22;8734;59.272;17.780;2023-07-13T00:48:51;15.10;99.90
17236;DHT22;8734;59.272;17.780;2023-07-13T00:51:25;15.10;99.90
17236;DHT22;8734;59.272;17.780;2023-07-13T00:53:58;15.00;99.90
17236;DHT22;8734;59.272;17.780;2023-07-13T00:56:28;15.10;99.90
17236;DHT22;8734;59.272;17.780;2023-07-13T00:58:57;15.00;99.90
17236;DHT22;8734;59.272;17.780;2023-07-13T01:01:27;15.10;99.90
17236;DHT22;8734;59.272;17.780;2023-07-13T01:03:56;15.10;99.90
17236;DHT22;8734;59.272;17.780;2023-07-13T01:06:25;15.10;99.90
17236;DHT22;8734;59.272;17.780;2023-07-13T01:08:54;15.10;99.90
17236;DHT22;8734;59.272;17.780;2023-07-13T01:11:24;15.10;99.90
17236;DHT22;8734;59.272;17.780;2023-07-13T01:13:52;15.20;99.90
17236;DHT22;8734;59.272;17.780;2023-07-13T01:16:25;15.20;99.90
17236;DHT22;8734;59.272;17.780;2023-07-13T01:18:54;15.10;99.90
17236;DHT22;8734;59.272;17.780;2023-07-13T01:21:27;15.10;99.90
17236;DHT22;8734;59.272;17.780;2023-07-13T01:23:57;15.10;99.90
17236;DHT22;8734;59.272;17.780;2023-07-13T01:26:26;15.10;99.90
17236;DHT22;8734;59.272;17.780;2023-07-13T01:28:55;15.10;99.90
17236;DHT22;8734;59.272;17.780;2023-07-13T01:31:24;15.10;99.90
17236;DHT22;8734;59.272;17.780;2023-07-13T01:33:53;15.00;99.90
17236;DHT22;8734;59.272;17.780;2023-07-13T01:36:21;15.00;99.90
17236;DHT22;8734;59.272;17.780;2023-07-13T01:38:51;15.00;99.90
17236;DHT22;8734;59.272;17.780;2023-07-13T01:41:19;15.00;99.90
17236;DHT22;8734;59.272;17.780;2023-07-13T01:43:48;14.90;99.90
17236;DHT22;8734;59.272;17.780;2023-07-13T01:46:16;14.90;99.90
17236;DHT22;8734;59.272;17.780;2023-07-13T01:48:50;14.90;99.90
17236;DHT22;8734;59.272;17.780;2023-07-13T01:51:20;14.90;99.90
17236;DHT22;8734;59.272;17.780;2023-07-13T01:53:48;14.90;99.90
17236;DHT22;8734;59.272;17.780;2023-07-13T01:56:18;14.90;99.90
17236;DHT22;8734;59.272;17.780;2023-07-13T01:58:47;14.90;99.90
17236;DHT22;8734;59.272;17.780;2023-07-13T02:01:16;14.90;99.90
17236;DHT22;8734;59.272;17.780;2023-07-13T02:03:44;14.90;99.90
17236;DHT22;8734;59.272;17.780;2023-07-13T02:06:13;14.90;99.90
17236;DHT22;8734;59.272;17.780;2023-07-13T02:08:41;14.90;99.90
17236;DHT22;8734;59.272;17.780;2023-07-13T02:11:10;14.90;99.90
17236;DHT22;8734;59.272;17.780;2023-07-13T02:13:39;14.80;99.90
17236;DHT22;8734;59.272;17.780;2023-07-13T02:16:08;14.80;99.90
17236;DHT22;8734;59.272;17.780;2023-07-13T02:18:36;14.80;99.90
17236;DHT22;8734;59.272;17.780;2023-07-13T02:21:04;14.80;99.90
17236;DHT22;8734;59.272;17.780;2023-07-13T02:23:33;14.80;99.90
17236;DHT22;8734;59.272;17.780;2023-07-13T02:26:05;14.70;99.90
17236;DHT22;8734;59.272;17.780;2023-07-13T02:28:33;14.70;99.90
17236;DHT22;8734;59.272;17.780;2023-07-13T02:31:07;14.70;99.90
17236;DHT22;8734;59.272;17.780;2023-07-13T02:33:36;14.70;99.90
17236;DHT22;8734;59.272;17.780;2023-07-13T02:36:05;14.70;99.90
17236;DHT22;8734;59.272;17.780;2023-07-13T02:38:33;14.60;99.90
17236;DHT22;8734;59.272;17.780;2023-07-13T02:41:03;14.70;99.90
17236;DHT22;8734;59.272;17.780;2023-07-13T02:43:31;14.70;99.90
17236;DHT22;8734;59.272;17.780;2023-07-13T02:46:00;14.70;99.90
17236;DHT22;8734;59.272;17.780;2023-07-13T02:48:37;14.70;99.90
17236;DHT22;8734;59.272;17.780;2023-07-13T02:51:06;14.70;99.90
17236;DHT22;8734;59.272;17.780;2023-07-13T02:53:34;14.70;99.90
17236;DHT22;8734;59.272;17.780;2023-07-13T02:56:04;14.70;99.90
17236;DHT22;8734;59.272;17.780;2023-07-13T02:58:32;14.70;99.90
17236;DHT22;8734;59.272;17.780;2023-07-13T03:01:06;14.70;99.90
17236;DHT22;8734;59.272;17.780;2023-07-13T03:03:37;14.70;99.90
17236;DHT22;8734;59.272;17.780;2023-07-13T03:06:06;14.70;99.90
17236;DHT22;8734;59.272;17.780;2023-07-13T03:08:36;14.70;99.90
17236;DHT22;8734;59.272;17.780;2023-07-13T03:11:07;14.80;99.90
17236;DHT22;8734;59.272;17.780;2023-07-13T03:13:36;14.80;99.90
17236;DHT22;8734;59.272;17.780;2023-07-13T03:16:05;14.80;99.90
17236;DHT22;8734;59.272;17.780;2023-07-13T03:18:33;14.80;99.90
17236;DHT22;8734;59.272;17.780;2023-07-13T03:21:04;14.80;99.90
17236;DHT22;8734;59.272;17.780;2023-07-13T03:23:32;14.90;99.90
17236;DHT22;8734;59.272;17.780;2023-07-13T03:26:03;14.80;99.90
17236;DHT22;8734;59.272;17.780;2023-07-13T03:28:32;14.90;99.90
17236;DHT22;8734;59.272;17.780;2023-07-13T03:31:02;14.90;99.90
17236;DHT22;8734;59.272;17.780;2023-07-13T03:33:30;14.90;99.90
17236;DHT22;8734;59.272;17.780;2023-07-13T03:36:00;14.90;99.90
17236;DHT22;8734;59.272;17.780;2023-07-13T03:38:30;15.00;99.90
17236;DHT22;8734;59.272;17.780;2023-07-13T03:40:58;15.00;99.90
17236;DHT22;8734;59.272;17.780;2023-07-13T03:43:26;15.00;99.90
17236;DHT22;8734;59.272;17.780;2023-07-13T03:45:55;15.00;99.90
17236;DHT22;8734;59.272;17.780;2023-07-13T03:48:23;15.00;99.90
17236;DHT22;8734;59.272;17.780;2023-07-13T03:50:52;15.10;99.90
17236;DHT22;8734;59.272;17.780;2023-07-13T03:53:20;15.00;99.90
17236;DHT22;8734;59.272;17.780;2023-07-13T03:55:49;15.10;99.90
17236;DHT22;8734;59.272;17.780;2023-07-13T03:58:29;15.10;99.90
17236;DHT22;8734;59.272;17.780;2023-07-13T04:00:58;15.20;99.90
17236;DHT22;8734;59.272;17.780;2023-07-13T04:03:27;15.20;99.90
17236;DHT22;8734;59.272;17.780;2023-07-13T04:05:56;15.20;99.90
17236;DHT22;8734;59.272;17.780;2023-07-13T04:08:28;15.20;99.90
17236;DHT22;8734;59.272;17.780;2023-07-13T04:10:58;15.30;99.90
17236;DHT22;8734;59.272;17.780;2023-07-13T04:13:27;15.30;99.90
17236;DHT22;8734;59.272;17.780;2023-07-13T04:15:55;15.40;99.90
17236;DHT22;8734;59.272;17.780;2023-07-13T04:18:24;15.40;99.90
17236;DHT22;8734;59.272;17.780;2023-07-13T04:20:52;15.40;99.90
17236;DHT22;8734;59.272;17.780;2023-07-13T04:23:21;15.40;99.90
17236;DHT22;8734;59.272;17.780;2023-07-13T04:25:52;15.50;99.90
17236;DHT22;8734;59.272;17.780;2023-07-13T04:28:24;15.50;99.90
17236;DHT22;8734;59.272;17.780;2023-07-13T04:30:53;15.50;99.90
17236;DHT22;8734;59.272;17.780;2023-07-13T04:33:21;15.60;99.90
17236;DHT22;8734;59.272;17.780;2023-07-13T04:35:50;15.60;99.90
17236;DHT22;8734;59.272;17.780;2023-07-13T04:38:25;15.60;99.90
17236;DHT22;8734;59.272;17.780;2023-07-13T04:40:55;15.60;99.90
17236;DHT22;8734;59.272;17.780;2023-07-13T04:43:25;15.60;99.90
17236;DHT22;8734;59.272;17.780;2023-07-13T04:45:54;15.70;99.90
17236;DHT22;8734;59.272;17.780;2023-07-13T04:48:23;15.70;99.90
17236;DHT22;8734;59.272;17.780;2023-07-13T04:50:56;15.70;99.90
17236;DHT22;8734;59.272;17.780;2023-07-13T04:53:24;15.80;99.90
17236;DHT22;8734;59.272;17.780;2023-07-13T04:55:53;15.80;99.90
17236;DHT22;8734;59.272;17.780;2023-07-13T04:58:24;15.90;99.90
17236;DHT22;8734;59.272;17.780;2023-07-13T05:00:59;16.00;99.90
17236;DHT22;8734;59.272;17.780;2023-07-13T05:03:29;16.10;99.90
17236;DHT22;8734;59.272;17.780;2023-07-13T05:05:59;16.20;99.90
17236;DHT22;8734;59.272;17.780;2023-07-13T05:08:27;16.20;99.90
17236;DHT22;8734;59.272;17.780;2023-07-13T05:10:56;16.20;99.90
17236;DHT22;8734;59.272;17.780;2023-07-13T05:13:24;16.20;99.90
17236;DHT22;8734;59.272;17.780;2023-07-13T05:15:58;16.20;99.90
17236;DHT22;8734;59.272;17.780;2023-07-13T05:18:27;16.20;99.90
17236;DHT22;8734;59.272;17.780;2023-07-13T05:21:00;16.30;99.90
17236;DHT22;8734;59.272;17.780;2023-07-13T05:23:29;16.30;99.90
17236;DHT22;8734;59.272;17.780;2023-07-13T05:25:58;16.40;99.90
17236;DHT22;8734;59.272;17.780;2023-07-13T05:28:27;16.40;99.90
17236;DHT22;8734;59.272;17.780;2023-07-13T05:30:58;16.40;99.90
17236;DHT22;8734;59.272;17.780;2023-07-13T05:33:27;16.40;99.90
17236;DHT22;8734;59.272;17.780;2023-07-13T05:35:56;16.40;99.90
17236;DHT22;8734;59.272;17.780;2023-07-13T05:38:24;16.40;99.90
17236;DHT22;8734;59.272;17.780;2023-07-13T05:40:53;16.40;99.90
17236;DHT22;8734;59.272;17.780;2023-07-13T05:43:23;16.40;99.90
17236;DHT22;8734;59.272;17.780;2023-07-13T05:45:53;16.50;99.90
17236;DHT22;8734;59.272;17.780;2023-07-13T05:48:23;16.50;99.90
17236;DHT22;8734;59.272;17.780;2023-07-13T05:50:52;16.60;99.90
17236;DHT22;8734;59.272;17.780;2023-07-13T05:53:20;16.60;99.90
17236;DHT22;8734;59.272;17.780;2023-07-13T05:55:48;16.60;99.90
17236;DHT22;8734;59.272;17.780;2023-07-13T05:58:20;16.60;99.90
17236;DHT22;8734;59.272;17.780;2023-07-13T06:00:57;16.60;99.90
17236;DHT22;8734;59.272;17.780;2023-07-13T06:03:28;16.60;99.90
17236;DHT22;8734;59.272;17.780;2023-07-13T06:05:56;16.70;99.90
17236;DHT22;8734;59.272;17.780;2023-07-13T06:08:27;16.70;99.90
17236;DHT22;8734;59.272;17.780;2023-07-13T06:11:02;16.70;99.90
17236;DHT22;8734;59.272;17.780;2023-07-13T06:13:30;16.80;99.90
17236;DHT22;8734;59.272;17.780;2023-07-13T06:15:59;17.00;99.90
17236;DHT22;8734;59.272;17.780;2023-07-13T06:18:29;17.00;99.90
17236;DHT22;8734;59.272;17.780;2023-07-13T06:20:57;17.20;99.90
17236;DHT22;8734;59.272;17.780;2023-07-13T06:23:25;17.30;99.90
17236;DHT22;8734;59.272;17.780;2023-07-13T06:25:53;17.40;99.90
17236;DHT22;8734;59.272;17.780;2023-07-13T06:28:22;17.60;99.90
17236;DHT22;8734;59.272;17.780;2023-07-13T06:30:50;17.60;99.90
17236;DHT22;8734;59.272;17.780;2023-07-13T06:33:18;17.50;99.90
17236;DHT22;8734;59.272;17.780;2023-07-13T06:35:48;17.50;99.90
17236;DHT22;8734;59.272;17.780;2023-07-13T06:38:16;17.60;99.90
17236;DHT22;8734;59.272;17.780;2023-07-13T06:40:45;17.60;99.90
17236;DHT22;8734;59.272;17.780;2023-07-13T06:43:13;17.70;99.90
17236;DHT22;8734;59.272;17.780;2023-07-13T06:45:44;17.90;99.90
17236;DHT22;8734;59.272;17.780;2023-07-13T06:48:14;17.90;99.90
17236;DHT22;8734;59.272;17.780;2023-07-13T06:50:43;17.90;99.90
17236;DHT22;8734;59.272;17.780;2023-07-13T06:53:13;18.00;99.90
17236;DHT22;8734;59.272;17.780;2023-07-13T06:55:44;18.00;99.90
17236;DHT22;8734;59.272;17.780;2023-07-13T06:58:14;18.20;99.90
17236;DHT22;8734;59.272;17.780;2023-07-13T07:00:43;18.30;99.90
17236;DHT22;8734;59.272;17.780;2023-07-13T07:03:11;18.50;99.90
17236;DHT22;8734;59.272;17.780;2023-07-13T07:05:40;18.60;99.90
17236;DHT22;8734;59.272;17.780;2023-07-13T07:08:08;18.90;99.90
17236;DHT22;8734;59.272;17.780;2023-07-13T07:10:40;19.00;99.90
17236;DHT22;8734;59.272;17.780;2023-07-13T07:13:08;19.00;99.90
17236;DHT22;8734;59.272;17.780;2023-07-13T07:15:36;19.00;99.90
17236;DHT22;8734;59.272;17.780;2023-07-13T07:18:05;19.10;99.90
17236;DHT22;8734;59.272;17.780;2023-07-13T07:20:34;19.20;99.90
17236;DHT22;8734;59.272;17.780;2023-07-13T07:23:02;19.00;99.90
17236;DHT22;8734;59.272;17.780;2023-07-13T07:25:30;19.00;99.90
17236;DHT22;8734;59.272;17.780;2023-07-13T07:28:02;19.30;99.90
17236;DHT22;8734;59.272;17.780;2023-07-13T07:30:34;19.70;99.90
17236;DHT22;8734;59.272;17.780;2023-07-13T07:33:05;20.00;99.90
17236;DHT22;8734;59.272;17.780;2023-07-13T07:35:33;20.40;99.90
17236;DHT22;8734;59.272;17.780;2023-07-13T07:38:22;20.80;99.90
17236;DHT22;8734;59.272;17.780;2023-07-13T07:40:51;21.00;99.90
17236;DHT22;8734;59.272;17.780;2023-07-13T07:43:23;21.20;99.90
17236;DHT22;8734;59.272;17.780;2023-07-13T07:45:52;21.30;99.90
17236;DHT22;8734;59.272;17.780;2023-07-13T07:48:21;21.40;99.90
17236;DHT22;8734;59.272;17.780;2023-07-13T07:50:49;21.50;99.90
17236;DHT22;8734;59.272;17.780;2023-07-13T07:53:17;21.70;99.90
17236;DHT22;8734;59.272;17.780;2023-07-13T07:55:45;21.90;99.90
17236;DHT22;8734;59.272;17.780;2023-07-13T07:58:17;22.00;99.90
17236;DHT22;8734;59.272;17.780;2023-07-13T08:00:50;22.10;99.90
17236;DHT22;8734;59.272;17.780;2023-07-13T08:03:21;22.40;99.90
17236;DHT22;8734;59.272;17.780;2023-07-13T08:05:53;22.50;99.90
17236;DHT22;8734;59.272;17.780;2023-07-13T08:08:24;22.60;99.90
17236;DHT22;8734;59.272;17.780;2023-07-13T08:10:53;22.70;99.90
17236;DHT22;8734;59.272;17.780;2023-07-13T08:13:26;22.80;99.90
17236;DHT22;8734;59.272;17.780;2023-07-13T08:15:55;23.10;99.90
17236;DHT22;8734;59.272;17.780;2023-07-13T08:18:24;23.50;99.90
17236;DHT22;8734;59.272;17.780;2023-07-13T08:20:52;22.80;99.90
17236;DHT22;8734;59.272;17.780;2023-07-13T08:23:23;22.70;99.90
17236;DHT22;8734;59.272;17.780;2023-07-13T08:25:51;22.60;99.90
17236;DHT22;8734;59.272;17.780;2023-07-13T08:28:20;23.00;99.90
17236;DHT22;8734;59.272;17.780;2023-07-13T08:30:49;23.10;99.90
17236;DHT22;8734;59.272;17.780;2023-07-13T08:33:20;23.20;99.90
17236;DHT22;8734;59.272;17.780;2023-07-13T08:35:50;23.30;99.90
17236;DHT22;8734;59.272;17.780;2023-07-13T08:38:19;23.20;99.90
17236;DHT22;8734;59.272;17.780;2023-07-13T08:40:50;23.40;99.90
17236;DHT22;8734;59.272;17.780;2023-07-13T08:43:23;23.60;99.90
17236;DHT22;8734;59.272;17.780;2023-07-13T08:45:57;23.50;99.90
17236;DHT22;8734;59.272;17.780;2023-07-13T08:48:35;23.70;99.90
17236;DHT22;8734;59.272;17.780;2023-07-13T08:51:16;23.60;99.90
17236;DHT22;8734;59.272;17.780;2023-07-13T08:53:52;23.70;99.90
17236;DHT22;8734;59.272;17.780;2023-07-13T08:56:24;24.20;99.90
17236;DHT22;8734;59.272;17.780;2023-07-13T08:58:56;24.00;99.90
17236;DHT22;8734;59.272;17.780;2023-07-13T09:01:30;23.30;99.90
17236;DHT22;8734;59.272;17.780;2023-07-13T09:04:05;23.10;99.90
17236;DHT22;8734;59.272;17.780;2023-07-13T09:06:46;23.10;99.90
17236;DHT22;8734;59.272;17.780;2023-07-13T09:09:24;22.80;99.90
17236;DHT22;8734;59.272;17.780;2023-07-13T09:12:04;23.00;99.90
17236;DHT22;8734;59.272;17.780;2023-07-13T09:14:41;23.30;99.90
17236;DHT22;8734;59.272;17.780;2023-07-13T09:17:17;23.60;99.90
17236;DHT22;8734;59.272;17.780;2023-07-13T09:19:52;23.70;99.90
17236;DHT22;8734;59.272;17.780;2023-07-13T09:22:23;23.80;99.90
17236;DHT22;8734;59.272;17.780;2023-07-13T09:25:02;23.50;99.90
17236;DHT22;8734;59.272;17.780;2023-07-13T09:27:37;23.40;99.90
17236;DHT22;8734;59.272;17.780;2023-07-13T09:30:23;23.20;99.90
17236;DHT22;8734;59.272;17.780;2023-07-13T09:32:53;23.30;99.90
17236;DHT22;8734;59.272;17.780;2023-07-13T09:35:26;23.00;99.90
17236;DHT22;8734;59.272;17.780;2023-07-13T09:38:03;22.40;99.90
17236;DHT22;8734;59.272;17.780;2023-07-13T09:40:43;22.30;99.90
17236;DHT22;8734;59.272;17.780;2023-07-13T09:43:14;22.20;99.90
17236;DHT22;8734;59.272;17.780;2023-07-13T09:45:45;22.60;99.90
17236;DHT22;8734;59.272;17.780;2023-07-13T09:48:16;23.10;99.90
17236;DHT22;8734;59.272;17.780;2023-07-13T09:50:47;23.80;99.90
17236;DHT22;8734;59.272;17.780;2023-07-13T09:53:17;24.30;99.90
17236;DHT22;8734;59.272;17.780;2023-07-13T09:55:47;24.60;99.90
17236;DHT22;8734;59.272;17.780;2023-07-13T09:58:21;24.30;99.90
17236;DHT22;8734;59.272;17.780;2023-07-13T10:00:55;24.40;99.90
17236;DHT22;8734;59.272;17.780;2023-07-13T10:03:27;23.80;99.90
17236;DHT22;8734;59.272;17.780;2023-07-13T10:06:09;24.40;99.90
17236;DHT22;8734;59.272;17.780;2023-07-13T10:08:39;24.90;99.90
17236;DHT22;8734;59.272;17.780;2023-07-13T10:11:11;24.20;99.90
17236;DHT22;8734;59.272;17.780;2023-07-13T10:13:43;24.30;99.90
17236;DHT22;8734;59.272;17.780;2023-07-13T10:16:12;23.90;99.90
17236;DHT22;8734;59.272;17.780;2023-07-13T10:18:44;23.70;99.90
17236;DHT22;8734;59.272;17.780;2023-07-13T10:21:17;24.40;99.90
17236;DHT22;8734;59.272;17.780;2023-07-13T10:24:06;24.60;99.90
17236;DHT22;8734;59.272;17.780;2023-07-13T10:26:46;24.50;99.90
17236;DHT22;8734;59.272;17.780;2023-07-13T10:29:16;24.60;99.90
17236;DHT22;8734;59.272;17.780;2023-07-13T10:31:46;24.70;99.90
17236;DHT22;8734;59.272;17.780;2023-07-13T10:34:14;25.00;99.90
17236;DHT22;8734;59.272;17.780;2023-07-13T10:36:46;24.80;99.90
17236;DHT22;8734;59.272;17.780;2023-07-13T10:39:17;24.80;99.90
17236;DHT22;8734;59.272;17.780;2023-07-13T10:41:50;24.80;99.90
17236;DHT22;8734;59.272;17.780;2023-07-13T10:44:23;24.70;99.90
17236;DHT22;8734;59.272;17.780;2023-07-13T10:46:55;24.80;99.90
17236;DHT22;8734;59.272;17.780;2023-07-13T10:49:27;25.00;99.90
17236;DHT22;8734;59.272;17.780;2023-07-13T10:51:58;25.60;99.90
17236;DHT22;8734;59.272;17.780;2023-07-13T10:54:29;25.40;99.90
17236;DHT22;8734;59.272;17.780;2023-07-13T10:57:16;25.30;99.90
17236;DHT22;8734;59.272;17.780;2023-07-13T10:59:47;25.30;99.90
17236;DHT22;8734;59.272;17.780;2023-07-13T11:02:24;25.60;99.90
17236;DHT22;8734;59.272;17.780;2023-07-13T11:04:55;25.90;99.90
17236;DHT22;8734;59.272;17.780;2023-07-13T11:07:30;26.30;99.90
17236;DHT22;8734;59.272;17.780;2023-07-13T11:10:03;26.50;99.90
17236;DHT22;8734;59.272;17.780;2023-07-13T11:12:51;26.40;99.90
17236;DHT22;8734;59.272;17.780;2023-07-13T11:15:44;26.00;99.90
17236;DHT22;8734;59.272;17.780;2023-07-13T11:18:23;25.80;99.90
17236;DHT22;8734;59.272;17.780;2023-07-13T11:20:52;25.80;99.90
17236;DHT22;8734;59.272;17.780;2023-07-13T11:24:03;25.50;99.90
17236;DHT22;8734;59.272;17.780;2023-07-13T11:26:40;25.00;99.90
17236;DHT22;8734;59.272;17.780;2023-07-13T11:29:12;24.40;99.90
17236;DHT22;8734;59.272;17.780;2023-07-13T11:31:52;23.80;99.90
17236;DHT22;8734;59.272;17.780;2023-07-13T11:34:25;23.50;99.90
17236;DHT22;8734;59.272;17.780;2023-07-13T11:36:56;23.40;99.90
17236;DHT22;8734;59.272;17.780;2023-07-13T11:39:29;23.10;99.90
17236;DHT22;8734;59.272;17.780;2023-07-13T11:42:00;22.90;99.90
17236;DHT22;8734;59.272;17.780;2023-07-13T11:44:30;22.90;99.90
17236;DHT22;8734;59.272;17.780;2023-07-13T11:47:00;22.80;99.90
17236;DHT22;8734;59.272;17.780;2023-07-13T11:49:41;22.70;99.90
17236;DHT22;8734;59.272;17.780;2023-07-13T11:52:11;22.70;99.90
17236;DHT22;8734;59.272;17.780;2023-07-13T11:54:47;22.60;99.90
17236;DHT22;8734;59.272;17.780;2023-07-13T11:57:25;22.90;99.90
17236;DHT22;8734;59.272;17.780;2023-07-13T11:59:55;23.10;99.90
17236;DHT22;8734;59.272;17.780;2023-07-13T12:02:28;23.30;99.90
17236;DHT22;8734;59.272;17.780;2023-07-13T12:04:57;23.10;99.90
17236;DHT22;8734;59.272;17.780;2023-07-13T12:07:29;23.40;99.90
17236;DHT22;8734;59.272;17.780;2023-07-13T12:10:02;24.00;99.90
17236;DHT22;8734;59.272;17.780;2023-07-13T12:12:30;24.40;99.90
17236;DHT22;8734;59.272;17.780;2023-07-13T12:14:59;24.50;99.90
17236;DHT22;8734;59.272;17.780;2023-07-13T12:17:27;24.80;99.90
17236;DHT22;8734;59.272;17.780;2023-07-13T12:19:56;25.10;99.90
17236;DHT22;8734;59.272;17.780;2023-07-13T12:22:25;25.20;99.90
17236;DHT22;8734;59.272;17.780;2023-07-13T12:24:54;25.20;99.90
17236;DHT22;8734;59.272;17.780;2023-07-13T12:27:26;25.40;99.90
17236;DHT22;8734;59.272;17.780;2023-07-13T12:29:59;25.50;99.90
17236;DHT22;8734;59.272;17.780;2023-07-13T12:32:28;25.30;99.90
17236;DHT22;8734;59.272;17.780;2023-07-13T12:35:14;25.10;99.90
17236;DHT22;8734;59.272;17.780;2023-07-13T12:37:46;24.70;99.90
17236;DHT22;8734;59.272;17.780;2023-07-13T12:40:15;25.00;99.90
17236;DHT22;8734;59.272;17.780;2023-07-13T12:42:48;25.10;99.90
17236;DHT22;8734;59.272;17.780;2023-07-13T12:45:19;25.50;99.90
17236;DHT22;8734;59.272;17.780;2023-07-13T12:47:59;25.60;99.90
17236;DHT22;8734;59.272;17.780;2023-07-13T12:50:36;25.40;99.90
17236;DHT22;8734;59.272;17.780;2023-07-13T12:53:06;25.00;99.90
17236;DHT22;8734;59.272;17.780;2023-07-13T12:55:43;25.30;99.90
17236;DHT22;8734;59.272;17.780;2023-07-13T12:58:21;25.30;99.90
17236;DHT22;8734;59.272;17.780;2023-07-13T13:00:50;25.30;99.90
17236;DHT22;8734;59.272;17.780;2023-07-13T13:03:24;25.70;99.90
17236;DHT22;8734;59.272;17.780;2023-07-13T13:05:58;26.10;99.90
17236;DHT22;8734;59.272;17.780;2023-07-13T13:08:30;25.90;99.90
17236;DHT22;8734;59.272;17.780;2023-07-13T13:10:59;25.80;99.90
17236;DHT22;8734;59.272;17.780;2023-07-13T13:13:28;25.70;99.90
17236;DHT22;8734;59.272;17.780;2023-07-13T13:16:01;25.40;99.90
17236;DHT22;8734;59.272;17.780;2023-07-13T13:18:33;25.10;99.90
17236;DHT22;8734;59.272;17.780;2023-07-13T13:21:03;24.20;99.90
17236;DHT22;8734;59.272;17.780;2023-07-13T13:23:31;23.80;99.90
17236;DHT22;8734;59.272;17.780;2023-07-13T13:25:59;23.70;99.90
17236;DHT22;8734;59.272;17.780;2023-07-13T13:28:31;24.40;99.90
17236;DHT22;8734;59.272;17.780;2023-07-13T13:30:59;24.60;99.90
17236;DHT22;8734;59.272;17.780;2023-07-13T13:33:28;24.90;99.90
17236;DHT22;8734;59.272;17.780;2023-07-13T13:35:57;25.00;99.90
17236;DHT22;8734;59.272;17.780;2023-07-13T13:38:27;25.20;99.90
17236;DHT22;8734;59.272;17.780;2023-07-13T13:40:55;25.00;99.90
17236;DHT22;8734;59.272;17.780;2023-07-13T13:43:25;24.70;99.90
17236;DHT22;8734;59.272;17.780;2023-07-13T13:45:57;24.70;99.90
17236;DHT22;8734;59.272;17.780;2023-07-13T13:48:30;24.50;99.90
17236;DHT22;8734;59.272;17.780;2023-07-13T13:51:00;24.50;99.90
17236;DHT22;8734;59.272;17.780;2023-07-13T13:53:29;24.80;99.90
17236;DHT22;8734;59.272;17.780;2023-07-13T13:55:57;24.90;99.90
17236;DHT22;8734;59.272;17.780;2023-07-13T13:58:26;24.50;99.90
17236;DHT22;8734;59.272;17.780;2023-07-13T14:00:56;24.60;99.90
17236;DHT22;8734;59.272;17.780;2023-07-13T14:03:25;24.60;99.90
17236;DHT22;8734;59.272;17.780;2023-07-13T14:05:55;24.80;99.90
17236;DHT22;8734;59.272;17.780;2023-07-13T14:08:24;25.00;99.90
17236;DHT22;8734;59.272;17.780;2023-07-13T14:10:55;25.20;99.90
17236;DHT22;8734;59.272;17.780;2023-07-13T14:13:36;25.30;99.90
17236;DHT22;8734;59.272;17.780;2023-07-13T14:16:11;24.80;99.90
17236;DHT22;8734;59.272;17.780;2023-07-13T14:18:41;24.20;99.90
17236;DHT22;8734;59.272;17.780;2023-07-13T14:21:12;23.90;99.90
17236;DHT22;8734;59.272;17.780;2023-07-13T14:23:43;23.90;99.90
17236;DHT22;8734;59.272;17.780;2023-07-13T14:26:14;23.70;99.90
17236;DHT22;8734;59.272;17.780;2023-07-13T14:28:44;23.90;99.90
17236;DHT22;8734;59.272;17.780;2023-07-13T14:31:16;24.20;99.90
17236;DHT22;8734;59.272;17.780;2023-07-13T14:33:45;24.10;99.90
17236;DHT22;8734;59.272;17.780;2023-07-13T14:36:24;23.90;99.90
17236;DHT22;8734;59.272;17.780;2023-07-13T14:38:53;23.70;99.90
17236;DHT22;8734;59.272;17.780;2023-07-13T14:41:21;23.80;99.90
17236;DHT22;8734;59.272;17.780;2023-07-13T14:43:50;23.60;99.90
17236;DHT22;8734;59.272;17.780;2023-07-13T14:46:31;23.00;99.90
17236;DHT22;8734;59.272;17.780;2023-07-13T14:49:03;22.70;99.90
17236;DHT22;8734;59.272;17.780;2023-07-13T14:51:33;22.50;99.90
17236;DHT22;8734;59.272;17.780;2023-07-13T14:54:04;22.40;99.90
17236;DHT22;8734;59.272;17.780;2023-07-13T14:56:32;22.50;99.90
17236;DHT22;8734;59.272;17.780;2023-07-13T14:59:01;22.30;99.90
17236;DHT22;8734;59.272;17.780;2023-07-13T15:01:31;22.40;99.90
17236;DHT22;8734;59.272;17.780;2023-07-13T15:04:00;22.50;99.90
17236;DHT22;8734;59.272;17.780;2023-07-13T15:06:30;22.70;99.90
17236;DHT22;8734;59.272;17.780;2023-07-13T15:08:59;22.50;99.90
17236;DHT22;8734;59.272;17.780;2023-07-13T15:11:30;22.00;99.90
17236;DHT22;8734;59.272;17.780;2023-07-13T15:13:59;21.70;99.90
17236;DHT22;8734;59.272;17.780;2023-07-13T15:16:27;21.50;99.90
17236;DHT22;8734;59.272;17.780;2023-07-13T15:18:57;21.30;99.90
17236;DHT22;8734;59.272;17.780;2023-07-13T15:21:26;21.10;99.90
17236;DHT22;8734;59.272;17.780;2023-07-13T15:24:01;21.20;99.90
17236;DHT22;8734;59.272;17.780;2023-07-13T15:26:30;21.10;99.90
17236;DHT22;8734;59.272;17.780;2023-07-13T15:28:59;21.10;99.90
17236;DHT22;8734;59.272;17.780;2023-07-13T15:31:28;21.10;99.90
17236;DHT22;8734;59.272;17.780;2023-07-13T15:34:00;21.10;99.90
17236;DHT22;8734;59.272;17.780;2023-07-13T15:36:28;21.20;99.90
17236;DHT22;8734;59.272;17.780;2023-07-13T15:39:00;21.30;99.90
17236;DHT22;8734;59.272;17.780;2023-07-13T15:41:28;21.40;99.90
17236;DHT22;8734;59.272;17.780;2023-07-13T15:43:58;21.60;99.90
17236;DHT22;8734;59.272;17.780;2023-07-13T15:46:27;21.80;99.90
17236;DHT22;8734;59.272;17.780;2023-07-13T15:48:58;21.80;99.90
17236;DHT22;8734;59.272;17.780;2023-07-13T15:51:29;21.50;99.90
17236;DHT22;8734;59.272;17.780;2023-07-13T15:54:00;21.30;99.90